sensor_id;sensor_type;location;lat;lon;timestamp;temperature;humidity
69679;DHT22;56915;52.046;4.854;2022-12-18T00:02:12;-2.10;99.90
69679;DHT22;56915;52.046;4.854;2022-12-18T00:04:39;-2.20;99.90
69679;DHT22;56915;52.046;4.854;2022-12-18T00:07:06;-2.20;99.90
69679;DHT22;56915;52.046;4.854;2022-12-18T00:09:32;-2.20;99.90
69679;DHT22;56915;52.046;4.854;2022-12-18T00:12:06;-2.20;99.90
69679;DHT22;56915;52.046;4.854;2022-12-18T00:14:41;-2.20;99.90
69679;DHT22;56915;52.046;4.854;2022-12-18T00:17:08;-2.20;99.90
69679;DHT22;56915;52.046;4.854;2022-12-18T00:19:35;-2.20;99.90
69679;DHT22;56915;52.046;4.854;2022-12-18T00:22:02;-2.30;99.90
69679;DHT22;56915;52.046;4.854;2022-12-18T00:24:29;-2.20;99.90
69679;DHT22;56915;52.046;4.854;2022-12-18T00:26:55;-2.30;99.90
69679;DHT22;56915;52.046;4.854;2022-12-18T00:29:22;-2.30;99.90
69679;DHT22;56915;52.046;4.854;2022-12-18T00:31:49;-2.30;99.90
69679;DHT22;56915;52.046;4.854;2022-12-18T00:34:16;-2.30;99.90
69679;DHT22;56915;52.046;4.854;2022-12-18T00:36:42;-2.30;99.90
69679;DHT22;56915;52.046;4.854;2022-12-18T00:39:10;-2.30;99.90
69679;DHT22;56915;52.046;4.854;2022-12-18T00:41:37;-2.30;99.90
69679;DHT22;56915;52.046;4.854;2022-12-18T00:44:22;-2.30;99.90
69679;DHT22;56915;52.046;4.854;2022-12-18T00:46:49;-2.20;99.90
69679;DHT22;56915;52.046;4.854;2022-12-18T00:49:17;-2.20;99.90
69679;DHT22;56915;52.046;4.854;2022-12-18T00:51:45;-2.30;99.90
69679;DHT22;56915;52.046;4.854;2022-12-18T00:54:11;-2.30;99.90
69679;DHT22;56915;52.046;4.854;2022-12-18T00:56:39;-2.30;99.90
69679;DHT22;56915;52.046;4.854;2022-12-18T00:59:15;-2.40;99.90
69679;DHT22;56915;52.046;4.854;2022-12-18T01:01:42;-2.40;99.90
69679;DHT22;56915;52.046;4.854;2022-12-18T01:04:09;-2.40;99.90
69679;DHT22;56915;52.046;4.854;2022-12-18T01:06:36;-2.40;99.90
69679;DHT22;56915;52.046;4.854;2022-12-18T01:09:03;-2.40;99.90
69679;DHT22;56915;52.046;4.854;2022-12-18T01:11:30;-2.40;99.90
69679;DHT22;56915;52.046;4.854;2022-12-18T01:14:00;-2.40;99.90
69679;DHT22;56915;52.046;4.854;2022-12-18T01:16:26;-2.40;99.90
69679;DHT22;56915;52.046;4.854;2022-12-18T01:18:55;-2.40;99.90
69679;DHT22;56915;52.046;4.854;2022-12-18T01:21:23;-2.40;99.90
69679;DHT22;56915;52.046;4.854;2022-12-18T01:23:55;-2.40;99.90
69679;DHT22;56915;52.046;4.854;2022-12-18T01:26:22;-2.40;99.90
69679;DHT22;56915;52.046;4.854;2022-12-18T01:28:50;-2.50;99.90
69679;DHT22;56915;52.046;4.854;2022-12-18T01:31:28;-2.50;99.90
69679;DHT22;56915;52.046;4.854;2022-12-18T01:33:55;-2.50;99.90
69679;DHT22;56915;52.046;4.854;2022-12-18T01:36:31;-2.50;99.90
69679;DHT22;56915;52.046;4.854;2022-12-18T01:39:04;-2.50;99.90
69679;DHT22;56915;52.046;4.854;2022-12-18T01:41:32;-2.60;99.90
69679;DHT22;56915;52.046;4.854;2022-12-18T01:47:41;-2.60;99.90
69679;DHT22;56915;52.046;4.854;2022-12-18T01:52:50;-2.70;99.90
69679;DHT22;56915;52.046;4.854;2022-12-18T01:55:20;-2.70;99.90
69679;DHT22;56915;52.046;4.854;2022-12-18T01:57:51;-2.70;99.90
69679;DHT22;56915;52.046;4.854;2022-12-18T02:00:20;-2.80;99.90
69679;DHT22;56915;52.046;4.854;2022-12-18T02:02:48;-2.70;99.90
69679;DHT22;56915;52.046;4.854;2022-12-18T02:05:18;-2.80;99.90
69679;DHT22;56915;52.046;4.854;2022-12-18T02:08:09;-2.80;99.90
69679;DHT22;56915;52.046;4.854;2022-12-18T02:13:23;-2.80;99.90
69679;DHT22;56915;52.046;4.854;2022-12-18T02:18:45;-2.80;99.90
69679;DHT22;56915;52.046;4.854;2022-12-18T02:24:38;-2.80;99.90
69679;DHT22;56915;52.046;4.854;2022-12-18T02:27:09;-2.90;99.90
69679;DHT22;56915;52.046;4.854;2022-12-18T02:29:57;-2.90;99.90
69679;DHT22;56915;52.046;4.854;2022-12-18T02:32:30;-2.90;99.90
69679;DHT22;56915;52.046;4.854;2022-12-18T02:34:58;-2.90;99.90
69679;DHT22;56915;52.046;4.854;2022-12-18T02:37:27;-3.00;99.90
69679;DHT22;56915;52.046;4.854;2022-12-18T02:39:56;-3.00;99.90
69679;DHT22;56915;52.046;4.854;2022-12-18T02:42:25;-3.00;99.90
69679;DHT22;56915;52.046;4.854;2022-12-18T02:44:52;-3.00;99.90
69679;DHT22;56915;52.046;4.854;2022-12-18T02:47:24;-3.00;99.90
69679;DHT22;56915;52.046;4.854;2022-12-18T02:50:10;-3.10;99.90
69679;DHT22;56915;52.046;4.854;2022-12-18T03:03:57;-3.10;99.90
69679;DHT22;56915;52.046;4.854;2022-12-18T03:06:32;-3.20;99.90
69679;DHT22;56915;52.046;4.854;2022-12-18T03:09:04;-3.20;99.90
69679;DHT22;56915;52.046;4.854;2022-12-18T03:11:34;-3.30;99.90
69679;DHT22;56915;52.046;4.854;2022-12-18T03:14:21;-3.30;99.90
69679;DHT22;56915;52.046;4.854;2022-12-18T03:16:53;-3.40;99.90
69679;DHT22;56915;52.046;4.854;2022-12-18T03:19:23;-3.40;99.90
69679;DHT22;56915;52.046;4.854;2022-12-18T03:21:55;-3.40;99.90
69679;DHT22;56915;52.046;4.854;2022-12-18T03:24:23;-3.50;99.90
69679;DHT22;56915;52.046;4.854;2022-12-18T03:26:58;-3.50;99.90
69679;DHT22;56915;52.046;4.854;2022-12-18T03:29:40;-3.50;99.90
69679;DHT22;56915;52.046;4.854;2022-12-18T03:32:39;-3.50;99.90
69679;DHT22;56915;52.046;4.854;2022-12-18T03:35:08;-3.50;99.90
69679;DHT22;56915;52.046;4.854;2022-12-18T03:37:37;-3.60;99.90
69679;DHT22;56915;52.046;4.854;2022-12-18T03:40:05;-3.60;99.90
69679;DHT22;56915;52.046;4.854;2022-12-18T03:42:51;-3.70;99.90
69679;DHT22;56915;52.046;4.854;2022-12-18T03:45:32;-3.70;99.90
69679;DHT22;56915;52.046;4.854;2022-12-18T03:48:04;-3.90;99.90
69679;DHT22;56915;52.046;4.854;2022-12-18T03:50:57;-3.90;99.90
69679;DHT22;56915;52.046;4.854;2022-12-18T03:53:49;-4.10;99.90
69679;DHT22;56915;52.046;4.854;2022-12-18T03:56:20;-4.10;99.90
69679;DHT22;56915;52.046;4.854;2022-12-18T03:58:49;-4.20;99.90
69679;DHT22;56915;52.046;4.854;2022-12-18T04:01:20;-4.30;99.90
69679;DHT22;56915;52.046;4.854;2022-12-18T04:03:49;-4.40;99.90
69679;DHT22;56915;52.046;4.854;2022-12-18T04:06:17;-4.50;99.90
69679;DHT22;56915;52.046;4.854;2022-12-18T04:08:45;-4.60;99.90
69679;DHT22;56915;52.046;4.854;2022-12-18T04:11:13;-4.70;99.90
69679;DHT22;56915;52.046;4.854;2022-12-18T04:13:39;-4.80;99.90
69679;DHT22;56915;52.046;4.854;2022-12-18T04:16:09;-4.90;99.90
69679;DHT22;56915;52.046;4.854;2022-12-18T04:18:36;-5.00;99.90
69679;DHT22;56915;52.046;4.854;2022-12-18T04:21:03;-5.10;99.90
69679;DHT22;56915;52.046;4.854;2022-12-18T04:23:30;-5.10;99.90
69679;DHT22;56915;52.046;4.854;2022-12-18T04:25:56;-5.20;99.90
69679;DHT22;56915;52.046;4.854;2022-12-18T04:28:23;-5.30;99.90
69679;DHT22;56915;52.046;4.854;2022-12-18T04:30:50;-5.30;99.90
69679;DHT22;56915;52.046;4.854;2022-12-18T04:33:17;-5.40;99.90
69679;DHT22;56915;52.046;4.854;2022-12-18T04:35:43;-5.40;99.90
69679;DHT22;56915;52.046;4.854;2022-12-18T04:38:10;-5.50;99.90
69679;DHT22;56915;52.046;4.854;2022-12-18T04:40:38;-5.50;99.90
69679;DHT22;56915;52.046;4.854;2022-12-18T04:43:06;-5.60;99.90
69679;DHT22;56915;52.046;4.854;2022-12-18T04:45:33;-5.60;99.90
69679;DHT22;56915;52.046;4.854;2022-12-18T04:48:02;-5.70;99.90
69679;DHT22;56915;52.046;4.854;2022-12-18T04:50:29;-5.70;99.90
69679;DHT22;56915;52.046;4.854;2022-12-18T04:52:57;-5.80;99.90
69679;DHT22;56915;52.046;4.854;2022-12-18T04:55:23;-5.80;99.90
69679;DHT22;56915;52.046;4.854;2022-12-18T04:57:50;-5.80;99.90
69679;DHT22;56915;52.046;4.854;2022-12-18T05:00:17;-5.80;99.90
69679;DHT22;56915;52.046;4.854;2022-12-18T05:02:44;-5.90;99.90
69679;DHT22;56915;52.046;4.854;2022-12-18T05:05:11;-5.90;99.90
69679;DHT22;56915;52.046;4.854;2022-12-18T05:07:38;-5.90;99.90
69679;DHT22;56915;52.046;4.854;2022-12-18T05:10:05;-5.90;99.90
69679;DHT22;56915;52.046;4.854;2022-12-18T05:12:32;-5.90;99.90
69679;DHT22;56915;52.046;4.854;2022-12-18T05:14:59;-5.90;99.90
69679;DHT22;56915;52.046;4.854;2022-12-18T05:17:26;-5.90;99.90
69679;DHT22;56915;52.046;4.854;2022-12-18T05:19:52;-5.90;99.90
69679;DHT22;56915;52.046;4.854;2022-12-18T05:22:19;-5.90;99.90
69679;DHT22;56915;52.046;4.854;2022-12-18T05:24:46;-5.90;99.90
69679;DHT22;56915;52.046;4.854;2022-12-18T05:27:13;-5.90;99.90
69679;DHT22;56915;52.046;4.854;2022-12-18T05:29:40;-6.00;99.90
69679;DHT22;56915;52.046;4.854;2022-12-18T05:32:06;-6.00;99.90
69679;DHT22;56915;52.046;4.854;2022-12-18T05:34:33;-6.00;99.90
69679;DHT22;56915;52.046;4.854;2022-12-18T05:37:00;-6.00;99.90
69679;DHT22;56915;52.046;4.854;2022-12-18T05:39:26;-6.00;99.90
69679;DHT22;56915;52.046;4.854;2022-12-18T05:41:53;-6.00;99.90
69679;DHT22;56915;52.046;4.854;2022-12-18T05:44:20;-6.10;99.90
69679;DHT22;56915;52.046;4.854;2022-12-18T05:46:47;-6.20;99.90
69679;DHT22;56915;52.046;4.854;2022-12-18T05:49:13;-6.20;99.90
69679;DHT22;56915;52.046;4.854;2022-12-18T05:51:40;-6.20;99.90
69679;DHT22;56915;52.046;4.854;2022-12-18T05:54:08;-6.30;99.90
69679;DHT22;56915;52.046;4.854;2022-12-18T05:56:35;-6.40;99.90
69679;DHT22;56915;52.046;4.854;2022-12-18T05:59:02;-6.40;99.90
69679;DHT22;56915;52.046;4.854;2022-12-18T06:01:29;-6.50;99.90
69679;DHT22;56915;52.046;4.854;2022-12-18T06:03:56;-6.50;99.90
69679;DHT22;56915;52.046;4.854;2022-12-18T06:06:26;-6.60;99.90
69679;DHT22;56915;52.046;4.854;2022-12-18T06:08:53;-6.60;99.90
69679;DHT22;56915;52.046;4.854;2022-12-18T06:11:26;-6.70;99.90
69679;DHT22;56915;52.046;4.854;2022-12-18T06:13:54;-6.80;99.90
69679;DHT22;56915;52.046;4.854;2022-12-18T06:16:25;-6.80;99.90
69679;DHT22;56915;52.046;4.854;2022-12-18T06:18:53;-6.90;99.90
69679;DHT22;56915;52.046;4.854;2022-12-18T06:21:22;-6.90;99.90
69679;DHT22;56915;52.046;4.854;2022-12-18T06:23:49;-7.00;99.90
69679;DHT22;56915;52.046;4.854;2022-12-18T06:26:15;-7.00;99.90
69679;DHT22;56915;52.046;4.854;2022-12-18T06:28:42;-7.00;99.90
69679;DHT22;56915;52.046;4.854;2022-12-18T06:31:09;-7.00;99.90
69679;DHT22;56915;52.046;4.854;2022-12-18T06:33:37;-7.00;99.90
69679;DHT22;56915;52.046;4.854;2022-12-18T06:36:09;-7.00;99.90
69679;DHT22;56915;52.046;4.854;2022-12-18T06:38:40;-7.00;99.90
69679;DHT22;56915;52.046;4.854;2022-12-18T06:41:15;-7.00;99.90
69679;DHT22;56915;52.046;4.854;2022-12-18T06:43:43;-7.00;99.90
69679;DHT22;56915;52.046;4.854;2022-12-18T06:46:11;-7.00;99.90
69679;DHT22;56915;52.046;4.854;2022-12-18T06:48:38;-7.00;99.90
69679;DHT22;56915;52.046;4.854;2022-12-18T06:51:05;-7.00;99.90
69679;DHT22;56915;52.046;4.854;2022-12-18T06:53:32;-7.00;99.90
69679;DHT22;56915;52.046;4.854;2022-12-18T06:56:04;-7.00;99.90
69679;DHT22;56915;52.046;4.854;2022-12-18T06:58:36;-6.90;99.90
69679;DHT22;56915;52.046;4.854;2022-12-18T07:01:05;-6.90;99.90
69679;DHT22;56915;52.046;4.854;2022-12-18T07:03:32;-6.90;99.90
69679;DHT22;56915;52.046;4.854;2022-12-18T07:05:59;-6.90;99.90
69679;DHT22;56915;52.046;4.854;2022-12-18T07:08:26;-6.90;99.90
69679;DHT22;56915;52.046;4.854;2022-12-18T07:10:54;-6.90;99.90
69679;DHT22;56915;52.046;4.854;2022-12-18T07:13:22;-6.90;99.90
69679;DHT22;56915;52.046;4.854;2022-12-18T07:15:49;-6.90;99.90
69679;DHT22;56915;52.046;4.854;2022-12-18T07:18:16;-6.90;99.90
69679;DHT22;56915;52.046;4.854;2022-12-18T07:20:42;-6.90;99.90
69679;DHT22;56915;52.046;4.854;2022-12-18T07:23:09;-6.90;99.90
69679;DHT22;56915;52.046;4.854;2022-12-18T07:25:36;-6.80;99.90
69679;DHT22;56915;52.046;4.854;2022-12-18T07:28:04;-6.80;99.90
69679;DHT22;56915;52.046;4.854;2022-12-18T07:30:30;-6.80;99.90
69679;DHT22;56915;52.046;4.854;2022-12-18T07:32:57;-6.70;99.90
69679;DHT22;56915;52.046;4.854;2022-12-18T07:35:24;-6.70;99.90
69679;DHT22;56915;52.046;4.854;2022-12-18T07:37:51;-6.60;99.90
69679;DHT22;56915;52.046;4.854;2022-12-18T07:40:17;-6.50;99.90
69679;DHT22;56915;52.046;4.854;2022-12-18T07:42:44;-6.50;99.90
69679;DHT22;56915;52.046;4.854;2022-12-18T07:45:11;-6.40;99.90
69679;DHT22;56915;52.046;4.854;2022-12-18T07:47:38;-6.30;99.90
69679;DHT22;56915;52.046;4.854;2022-12-18T07:50:05;-6.30;99.90
69679;DHT22;56915;52.046;4.854;2022-12-18T07:52:32;-6.20;99.90
69679;DHT22;56915;52.046;4.854;2022-12-18T07:54:59;-6.10;99.90
69679;DHT22;56915;52.046;4.854;2022-12-18T07:57:26;-6.00;99.90
69679;DHT22;56915;52.046;4.854;2022-12-18T08:00:13;-5.90;99.90
69679;DHT22;56915;52.046;4.854;2022-12-18T08:02:40;-5.90;99.90
69679;DHT22;56915;52.046;4.854;2022-12-18T08:05:19;-5.80;99.90
69679;DHT22;56915;52.046;4.854;2022-12-18T08:07:47;-5.70;99.90
69679;DHT22;56915;52.046;4.854;2022-12-18T08:10:13;-5.70;99.90
69679;DHT22;56915;52.046;4.854;2022-12-18T08:12:40;-5.60;99.90
69679;DHT22;56915;52.046;4.854;2022-12-18T08:15:08;-5.60;99.90
69679;DHT22;56915;52.046;4.854;2022-12-18T08:17:35;-5.60;99.90
69679;DHT22;56915;52.046;4.854;2022-12-18T08:20:03;-5.50;99.90
69679;DHT22;56915;52.046;4.854;2022-12-18T08:22:30;-5.50;99.90
69679;DHT22;56915;52.046;4.854;2022-12-18T08:24:57;-5.50;99.90
69679;DHT22;56915;52.046;4.854;2022-12-18T08:27:24;-5.50;99.90
69679;DHT22;56915;52.046;4.854;2022-12-18T08:29:56;-5.40;99.90
69679;DHT22;56915;52.046;4.854;2022-12-18T08:32:28;-5.40;99.90
69679;DHT22;56915;52.046;4.854;2022-12-18T08:34:55;-5.40;99.90
69679;DHT22;56915;52.046;4.854;2022-12-18T08:37:21;-5.30;99.90
69679;DHT22;56915;52.046;4.854;2022-12-18T08:39:48;-5.20;99.90
69679;DHT22;56915;52.046;4.854;2022-12-18T08:42:15;-5.20;99.90
69679;DHT22;56915;52.046;4.854;2022-12-18T08:45:01;-5.10;99.90
69679;DHT22;56915;52.046;4.854;2022-12-18T08:47:28;-5.00;99.90
69679;DHT22;56915;52.046;4.854;2022-12-18T08:49:55;-4.90;99.90
69679;DHT22;56915;52.046;4.854;2022-12-18T08:52:21;-4.90;99.90
69679;DHT22;56915;52.046;4.854;2022-12-18T08:54:48;-4.70;99.90
69679;DHT22;56915;52.046;4.854;2022-12-18T08:57:15;-4.70;99.90
69679;DHT22;56915;52.046;4.854;2022-12-18T08:59:42;-4.60;99.90
69679;DHT22;56915;52.046;4.854;2022-12-18T09:02:10;-4.50;99.90
69679;DHT22;56915;52.046;4.854;2022-12-18T09:04:38;-4.40;99.90
69679;DHT22;56915;52.046;4.854;2022-12-18T09:07:06;-4.30;99.90
69679;DHT22;56915;52.046;4.854;2022-12-18T09:09:33;-4.30;99.90
69679;DHT22;56915;52.046;4.854;2022-12-18T09:11:59;-4.20;99.90
69679;DHT22;56915;52.046;4.854;2022-12-18T09:14:26;-4.10;99.90
69679;DHT22;56915;52.046;4.854;2022-12-18T09:16:53;-4.00;99.90
69679;DHT22;56915;52.046;4.854;2022-12-18T09:19:20;-4.00;99.90
69679;DHT22;56915;52.046;4.854;2022-12-18T09:21:47;-3.90;99.90
69679;DHT22;56915;52.046;4.854;2022-12-18T09:24:14;-3.80;99.90
69679;DHT22;56915;52.046;4.854;2022-12-18T09:26:41;-3.70;99.90
69679;DHT22;56915;52.046;4.854;2022-12-18T09:29:12;-3.60;99.90
69679;DHT22;56915;52.046;4.854;2022-12-18T09:31:39;-3.60;99.90
69679;DHT22;56915;52.046;4.854;2022-12-18T09:34:06;-3.50;99.90
69679;DHT22;56915;52.046;4.854;2022-12-18T09:36:33;-3.40;99.90
69679;DHT22;56915;52.046;4.854;2022-12-18T09:39:00;-3.30;99.90
69679;DHT22;56915;52.046;4.854;2022-12-18T09:46:57;-3.10;99.90
69679;DHT22;56915;52.046;4.854;2022-12-18T09:49:28;-3.10;99.90
69679;DHT22;56915;52.046;4.854;2022-12-18T09:52:09;-3.00;99.90
69679;DHT22;56915;52.046;4.854;2022-12-18T09:54:42;-2.90;99.90
69679;DHT22;56915;52.046;4.854;2022-12-18T09:57:14;-2.90;99.90
69679;DHT22;56915;52.046;4.854;2022-12-18T09:59:45;-2.70;99.90
69679;DHT22;56915;52.046;4.854;2022-12-18T10:02:24;-2.60;99.90
69679;DHT22;56915;52.046;4.854;2022-12-18T10:05:09;-2.60;99.90
69679;DHT22;56915;52.046;4.854;2022-12-18T10:18:26;-2.10;99.90
69679;DHT22;56915;52.046;4.854;2022-12-18T10:21:02;-2.10;99.90
69679;DHT22;56915;52.046;4.854;2022-12-18T10:26:09;-1.90;99.90
69679;DHT22;56915;52.046;4.854;2022-12-18T10:28:38;-1.90;99.90
69679;DHT22;56915;52.046;4.854;2022-12-18T10:31:12;-1.80;99.90
69679;DHT22;56915;52.046;4.854;2022-12-18T10:33:41;-1.80;99.90
69679;DHT22;56915;52.046;4.854;2022-12-18T10:36:07;-1.70;99.90
69679;DHT22;56915;52.046;4.854;2022-12-18T10:38:34;-1.70;99.90
69679;DHT22;56915;52.046;4.854;2022-12-18T10:43:44;-1.60;99.90
69679;DHT22;56915;52.046;4.854;2022-12-18T10:48:55;-1.50;99.90
69679;DHT22;56915;52.046;4.854;2022-12-18T10:51:28;-1.40;99.90
69679;DHT22;56915;52.046;4.854;2022-12-18T10:54:21;-1.30;99.90
69679;DHT22;56915;52.046;4.854;2022-12-18T10:56:49;-1.30;99.90
69679;DHT22;56915;52.046;4.854;2022-12-18T10:59:17;-1.30;99.90
69679;DHT22;56915;52.046;4.854;2022-12-18T11:04:22;-1.20;99.90
69679;DHT22;56915;52.046;4.854;2022-12-18T11:07:10;-1.10;99.90
69679;DHT22;56915;52.046;4.854;2022-12-18T11:09:39;-1.10;99.90
69679;DHT22;56915;52.046;4.854;2022-12-18T11:12:16;-1.00;99.90
69679;DHT22;56915;52.046;4.854;2022-12-18T11:14:52;-0.90;99.90
69679;DHT22;56915;52.046;4.854;2022-12-18T11:19:59;-0.80;99.90
69679;DHT22;56915;52.046;4.854;2022-12-18T11:25:00;-0.70;99.90
69679;DHT22;56915;52.046;4.854;2022-12-18T11:27:54;-0.60;99.90
69679;DHT22;56915;52.046;4.854;2022-12-18T11:38:28;-0.30;99.90
69679;DHT22;56915;52.046;4.854;2022-12-18T11:41:10;-0.20;99.90
69679;DHT22;56915;52.046;4.854;2022-12-18T11:43:52;-0.10;99.40
69679;DHT22;56915;52.046;4.854;2022-12-18T11:46:33;-0.10;99.20
69679;DHT22;56915;52.046;4.854;2022-12-18T11:49:14;0.00;99.40
69679;DHT22;56915;52.046;4.854;2022-12-18T11:54:22;0.00;98.60
69679;DHT22;56915;52.046;4.854;2022-12-18T12:10:23;0.20;97.70
69679;DHT22;56915;52.046;4.854;2022-12-18T12:29:01;0.30;96.20
69679;DHT22;56915;52.046;4.854;2022-12-18T12:39:37;0.30;95.80
69679;DHT22;56915;52.046;4.854;2022-12-18T12:42:10;0.30;96.00
69679;DHT22;56915;52.046;4.854;2022-12-18T12:44:59;0.30;95.90
69679;DHT22;56915;52.046;4.854;2022-12-18T12:47:35;0.30;95.70
69679;DHT22;56915;52.046;4.854;2022-12-18T12:50:13;0.30;95.20
69679;DHT22;56915;52.046;4.854;2022-12-18T12:52:47;0.30;95.40
69679;DHT22;56915;52.046;4.854;2022-12-18T12:55:20;0.30;95.40
69679;DHT22;56915;52.046;4.854;2022-12-18T13:00:53;0.30;95.40
69679;DHT22;56915;52.046;4.854;2022-12-18T13:06:12;0.30;95.20
69679;DHT22;56915;52.046;4.854;2022-12-18T13:08:59;0.30;95.50
69679;DHT22;56915;52.046;4.854;2022-12-18T13:11:47;0.30;95.30
69679;DHT22;56915;52.046;4.854;2022-12-18T13:14:35;0.20;95.20
69679;DHT22;56915;52.046;4.854;2022-12-18T13:20:14;0.20;95.30
69679;DHT22;56915;52.046;4.854;2022-12-18T13:22:48;0.20;95.60
69679;DHT22;56915;52.046;4.854;2022-12-18T13:25:35;0.20;95.50
69679;DHT22;56915;52.046;4.854;2022-12-18T13:28:11;0.20;95.10
69679;DHT22;56915;52.046;4.854;2022-12-18T13:30:54;0.10;95.10
69679;DHT22;56915;52.046;4.854;2022-12-18T13:36:13;0.10;95.50
69679;DHT22;56915;52.046;4.854;2022-12-18T13:38:41;0.10;95.50
69679;DHT22;56915;52.046;4.854;2022-12-18T13:43:50;0.10;95.60
69679;DHT22;56915;52.046;4.854;2022-12-18T13:46:19;0.10;95.70
69679;DHT22;56915;52.046;4.854;2022-12-18T13:51:48;0.10;95.90
69679;DHT22;56915;52.046;4.854;2022-12-18T13:54:39;0.10;96.00
69679;DHT22;56915;52.046;4.854;2022-12-18T13:57:35;0.10;96.10
69679;DHT22;56915;52.046;4.854;2022-12-18T14:02:49;0.00;95.80
69679;DHT22;56915;52.046;4.854;2022-12-18T14:05:24;0.00;95.70
69679;DHT22;56915;52.046;4.854;2022-12-18T14:07:55;0.10;95.70
69679;DHT22;56915;52.046;4.854;2022-12-18T14:10:27;0.00;95.60
69679;DHT22;56915;52.046;4.854;2022-12-18T14:13:27;0.10;95.50
69679;DHT22;56915;52.046;4.854;2022-12-18T14:15:56;0.00;95.70
69679;DHT22;56915;52.046;4.854;2022-12-18T14:18:45;0.00;95.60
69679;DHT22;56915;52.046;4.854;2022-12-18T14:21:22;0.00;95.30
69679;DHT22;56915;52.046;4.854;2022-12-18T14:24:13;0.00;95.30
69679;DHT22;56915;52.046;4.854;2022-12-18T14:26:43;0.00;95.20
69679;DHT22;56915;52.046;4.854;2022-12-18T14:29:23;0.00;95.10
69679;DHT22;56915;52.046;4.854;2022-12-18T14:32:14;0.00;95.30
69679;DHT22;56915;52.046;4.854;2022-12-18T14:34:49;0.00;95.10
69679;DHT22;56915;52.046;4.854;2022-12-18T14:37:21;-0.10;94.90
69679;DHT22;56915;52.046;4.854;2022-12-18T14:39:59;-0.10;95.00
69679;DHT22;56915;52.046;4.854;2022-12-18T14:42:36;-0.10;94.90
69679;DHT22;56915;52.046;4.854;2022-12-18T14:45:38;-0.20;95.00
69679;DHT22;56915;52.046;4.854;2022-12-18T14:48:21;-0.20;95.10
69679;DHT22;56915;52.046;4.854;2022-12-18T14:51:01;-0.20;95.10
69679;DHT22;56915;52.046;4.854;2022-12-18T14:53:34;-0.20;95.00
69679;DHT22;56915;52.046;4.854;2022-12-18T14:56:03;-0.20;94.90
69679;DHT22;56915;52.046;4.854;2022-12-18T14:58:30;-0.20;94.90
69679;DHT22;56915;52.046;4.854;2022-12-18T15:00:57;-0.20;95.00
69679;DHT22;56915;52.046;4.854;2022-12-18T15:03:24;-0.20;95.00
69679;DHT22;56915;52.046;4.854;2022-12-18T15:05:52;-0.20;95.20
69679;DHT22;56915;52.046;4.854;2022-12-18T15:08:36;-0.30;94.90
69679;DHT22;56915;52.046;4.854;2022-12-18T15:11:22;-0.30;94.80
69679;DHT22;56915;52.046;4.854;2022-12-18T15:13:50;-0.30;94.90
69679;DHT22;56915;52.046;4.854;2022-12-18T15:16:18;-0.30;94.90
69679;DHT22;56915;52.046;4.854;2022-12-18T15:18:46;-0.30;95.00
69679;DHT22;56915;52.046;4.854;2022-12-18T15:21:18;-0.30;95.10
69679;DHT22;56915;52.046;4.854;2022-12-18T15:23:52;-0.30;95.40
69679;DHT22;56915;52.046;4.854;2022-12-18T15:26:21;-0.40;95.20
69679;DHT22;56915;52.046;4.854;2022-12-18T15:28:52;-0.40;95.20
69679;DHT22;56915;52.046;4.854;2022-12-18T15:31:23;-0.40;95.20
69679;DHT22;56915;52.046;4.854;2022-12-18T15:36:23;-0.40;95.20
69679;DHT22;56915;52.046;4.854;2022-12-18T15:38:54;-0.40;95.20
69679;DHT22;56915;52.046;4.854;2022-12-18T15:41:33;-0.40;95.30
69679;DHT22;56915;52.046;4.854;2022-12-18T15:44:02;-0.40;95.30
69679;DHT22;56915;52.046;4.854;2022-12-18T15:46:29;-0.40;95.30
69679;DHT22;56915;52.046;4.854;2022-12-18T15:48:58;-0.30;95.10
69679;DHT22;56915;52.046;4.854;2022-12-18T15:51:38;-0.30;95.20
69679;DHT22;56915;52.046;4.854;2022-12-18T15:54:09;-0.30;95.20
69679;DHT22;56915;52.046;4.854;2022-12-18T15:56:37;-0.30;95.30
69679;DHT22;56915;52.046;4.854;2022-12-18T15:59:24;-0.30;95.30
69679;DHT22;56915;52.046;4.854;2022-12-18T16:01:51;-0.30;95.20
69679;DHT22;56915;52.046;4.854;2022-12-18T16:04:22;-0.30;95.10
69679;DHT22;56915;52.046;4.854;2022-12-18T16:06:50;-0.30;95.10
69679;DHT22;56915;52.046;4.854;2022-12-18T16:09:38;-0.30;95.00
69679;DHT22;56915;52.046;4.854;2022-12-18T16:12:06;-0.30;94.90
69679;DHT22;56915;52.046;4.854;2022-12-18T16:14:33;-0.20;95.00
69679;DHT22;56915;52.046;4.854;2022-12-18T16:17:03;-0.20;95.00
69679;DHT22;56915;52.046;4.854;2022-12-18T16:19:31;-0.20;95.00
69679;DHT22;56915;52.046;4.854;2022-12-18T16:21:58;-0.20;94.90
69679;DHT22;56915;52.046;4.854;2022-12-18T16:24:28;-0.20;94.90
69679;DHT22;56915;52.046;4.854;2022-12-18T16:26:57;-0.20;95.10
69679;DHT22;56915;52.046;4.854;2022-12-18T16:29:26;-0.20;95.10
69679;DHT22;56915;52.046;4.854;2022-12-18T16:31:58;-0.20;94.90
69679;DHT22;56915;52.046;4.854;2022-12-18T16:37:03;-0.10;94.80
69679;DHT22;56915;52.046;4.854;2022-12-18T16:39:32;-0.10;94.60
69679;DHT22;56915;52.046;4.854;2022-12-18T16:42:13;-0.10;94.60
69679;DHT22;56915;52.046;4.854;2022-12-18T16:44:41;-0.10;94.50
69679;DHT22;56915;52.046;4.854;2022-12-18T16:47:08;-0.10;94.50
69679;DHT22;56915;52.046;4.854;2022-12-18T16:49:37;-0.10;94.40
69679;DHT22;56915;52.046;4.854;2022-12-18T16:52:05;0.00;94.40
69679;DHT22;56915;52.046;4.854;2022-12-18T16:54:32;0.00;94.30
69679;DHT22;56915;52.046;4.854;2022-12-18T16:57:00;0.00;94.40
69679;DHT22;56915;52.046;4.854;2022-12-18T16:59:28;0.00;94.40
69679;DHT22;56915;52.046;4.854;2022-12-18T17:01:55;0.00;94.10
69679;DHT22;56915;52.046;4.854;2022-12-18T17:04:23;0.00;94.10
69679;DHT22;56915;52.046;4.854;2022-12-18T17:06:49;0.10;94.10
69679;DHT22;56915;52.046;4.854;2022-12-18T17:09:20;0.10;94.00
69679;DHT22;56915;52.046;4.854;2022-12-18T17:11:51;0.10;93.80
69679;DHT22;56915;52.046;4.854;2022-12-18T17:14:21;0.10;93.80
69679;DHT22;56915;52.046;4.854;2022-12-18T17:16:48;0.10;93.80
69679;DHT22;56915;52.046;4.854;2022-12-18T17:19:35;0.10;93.70
69679;DHT22;56915;52.046;4.854;2022-12-18T17:22:02;0.10;93.70
69679;DHT22;56915;52.046;4.854;2022-12-18T17:24:30;0.10;93.60
69679;DHT22;56915;52.046;4.854;2022-12-18T17:27:01;0.20;93.60
69679;DHT22;56915;52.046;4.854;2022-12-18T17:29:29;0.20;93.90
69679;DHT22;56915;52.046;4.854;2022-12-18T17:31:56;0.20;93.50
69679;DHT22;56915;52.046;4.854;2022-12-18T17:34:26;0.20;93.40
69679;DHT22;56915;52.046;4.854;2022-12-18T17:36:53;0.20;93.40
69679;DHT22;56915;52.046;4.854;2022-12-18T17:39:21;0.30;93.40
69679;DHT22;56915;52.046;4.854;2022-12-18T17:41:48;0.30;93.40
69679;DHT22;56915;52.046;4.854;2022-12-18T17:44:16;0.30;93.30
69679;DHT22;56915;52.046;4.854;2022-12-18T17:46:43;0.30;93.30
69679;DHT22;56915;52.046;4.854;2022-12-18T17:49:10;0.30;93.20
69679;DHT22;56915;52.046;4.854;2022-12-18T17:51:37;0.40;93.30
69679;DHT22;56915;52.046;4.854;2022-12-18T17:54:04;0.40;93.20
69679;DHT22;56915;52.046;4.854;2022-12-18T17:56:32;0.40;93.20
69679;DHT22;56915;52.046;4.854;2022-12-18T17:58:59;0.40;93.40
69679;DHT22;56915;52.046;4.854;2022-12-18T18:01:26;0.40;92.90
69679;DHT22;56915;52.046;4.854;2022-12-18T18:03:53;0.40;93.00
69679;DHT22;56915;52.046;4.854;2022-12-18T18:06:23;0.40;92.80
69679;DHT22;56915;52.046;4.854;2022-12-18T18:08:50;0.40;92.80
69679;DHT22;56915;52.046;4.854;2022-12-18T18:11:19;0.50;93.10